createdAt,value
2023-04-01T00:01:33.879Z,6.92
2023-04-01T00:04:04.143Z,6.96
2023-04-01T00:06:33.270Z,6.77
2023-04-01T00:09:04.135Z,6.84
2023-04-01T00:11:34.916Z,6.92
2023-04-01T00:14:03.809Z,7.13
2023-04-01T00:16:32.780Z,7.32
2023-04-01T00:19:03.054Z,7.39
2023-04-01T00:21:32.605Z,7.38
2023-04-01T00:24:02.124Z,7.29
2023-04-01T00:26:32.402Z,7.19
2023-04-01T00:29:02.548Z,7.33
2023-04-01T00:31:31.415Z,7.34
2023-04-01T00:34:00.281Z,7.42
2023-04-01T00:36:30.644Z,6.96
2023-04-01T00:39:00.183Z,6.43
2023-04-01T00:41:29.747Z,6.39
2023-04-01T00:44:17.292Z,6.20
2023-04-01T00:46:46.322Z,6.53
2023-04-01T00:49:16.071Z,6.59
2023-04-01T00:51:49.074Z,6.65
2023-04-01T00:54:19.732Z,6.87
2023-04-01T00:56:56.806Z,6.92
2023-04-01T00:59:29.586Z,7.00
2023-04-01T01:01:58.716Z,6.91
2023-04-01T01:04:29.611Z,6.99
2023-04-01T01:07:14.382Z,7.05
2023-04-01T01:09:50.776Z,7.03
2023-04-01T01:12:23.516Z,7.03
2023-04-01T01:15:02.857Z,7.00
2023-04-01T01:17:41.856Z,6.85
2023-04-01T01:20:48.838Z,6.72
2023-04-01T01:23:55.135Z,6.78
2023-04-01T01:26:42.561Z,6.85
2023-04-01T01:29:30.948Z,6.61
2023-04-01T01:32:10.419Z,6.59
2023-04-01T01:34:49.135Z,6.76
2023-04-01T01:37:23.295Z,6.94
2023-04-01T01:39:56.527Z,7.06
2023-04-01T01:42:28.334Z,7.12
2023-04-01T01:45:01.310Z,6.95
2023-04-01T01:47:31.721Z,6.80
2023-04-01T01:50:04.298Z,7.00
2023-04-01T01:52:34.536Z,7.19
2023-04-01T01:55:05.714Z,7.27
2023-04-01T01:57:47.526Z,7.36
2023-04-01T02:00:20.329Z,7.36
2023-04-01T02:02:51.914Z,7.38
2023-04-01T02:05:25.636Z,7.30
2023-04-01T02:08:05.669Z,7.37
2023-04-01T02:10:38.032Z,7.44
2023-04-01T02:13:15.330Z,7.49
2023-04-01T02:15:49.708Z,7.63
2023-04-01T02:18:21.512Z,7.62
2023-04-01T02:20:51.348Z,7.68
2023-04-01T02:23:22.653Z,7.54
2023-04-01T02:25:53.226Z,7.73
2023-04-01T02:28:22.723Z,7.69
2023-04-01T02:30:52.105Z,7.69
2023-04-01T02:33:22.046Z,7.65
2023-04-01T02:35:52.820Z,7.68
2023-04-01T02:38:23.605Z,7.69
2023-04-01T02:40:58.345Z,7.71
2023-04-01T02:43:28.416Z,7.39
2023-04-01T02:45:58.459Z,7.41
2023-04-01T02:48:27.412Z,7.12
2023-04-01T02:50:56.828Z,7.20
2023-04-01T02:53:27.211Z,7.01
2023-04-01T02:55:57.304Z,6.91
2023-04-01T02:58:26.182Z,6.74
2023-04-01T03:00:55.185Z,6.83
2023-04-01T03:03:24.126Z,6.72
2023-04-01T03:05:52.983Z,6.77
2023-04-01T03:08:21.790Z,6.91
2023-04-01T03:10:52.143Z,7.11
2023-04-01T03:13:21.099Z,7.24
2023-04-01T03:15:50.681Z,7.25
2023-04-01T03:18:19.558Z,7.25
2023-04-01T03:20:48.592Z,7.21
2023-04-01T03:23:20.493Z,7.27
2023-04-01T03:25:51.142Z,7.13
2023-04-01T03:28:20.065Z,7.06
2023-04-01T03:30:49.188Z,7.10
2023-04-01T03:33:18.279Z,7.04
2023-04-01T03:35:47.133Z,6.84
2023-04-01T03:38:17.171Z,7.01
2023-04-01T03:40:46.527Z,7.05
2023-04-01T03:43:17.956Z,6.91
2023-04-01T03:45:47.299Z,6.81
2023-04-01T03:48:16.362Z,6.93
2023-04-01T03:50:46.425Z,6.83
2023-04-01T03:53:16.337Z,6.26
2023-04-01T03:55:47.888Z,6.09
2023-04-01T03:58:18.512Z,6.34
2023-04-01T04:00:48.011Z,6.52
2023-04-01T04:03:17.389Z,6.54
2023-04-01T04:05:49.697Z,6.73
2023-04-01T04:08:22.600Z,6.82
2023-04-01T04:10:57.352Z,6.79
2023-04-01T04:13:27.619Z,7.03
2023-04-01T04:16:03.389Z,7.17
2023-04-01T04:18:33.250Z,7.22
2023-04-01T04:21:02.929Z,7.28
2023-04-01T04:23:34.509Z,7.30
2023-04-01T04:26:07.390Z,7.39
2023-04-01T04:28:38.387Z,7.42
2023-04-01T04:31:07.823Z,7.13
2023-04-01T04:33:39.512Z,7.22
2023-04-01T04:36:09.098Z,7.28
2023-04-01T04:38:38.082Z,7.33
2023-04-01T04:41:11.358Z,7.25
2023-04-01T04:43:42.364Z,7.37
2023-04-01T04:46:12.044Z,7.51
2023-04-01T04:48:41.519Z,7.53
2023-04-01T04:51:10.521Z,7.53
2023-04-01T04:53:39.511Z,7.54
2023-04-01T04:56:08.843Z,7.63
2023-04-01T04:58:54.494Z,7.70
2023-04-01T05:01:27.934Z,7.77
2023-04-01T05:03:56.882Z,7.72
2023-04-01T05:06:26.703Z,7.62
2023-04-01T05:08:55.905Z,7.89
2023-04-01T05:11:27.029Z,7.90
2023-04-01T05:13:57.448Z,7.63
2023-04-01T05:16:26.559Z,7.49
2023-04-01T05:18:55.388Z,7.74
2023-04-01T05:21:24.951Z,7.91
2023-04-01T05:23:55.500Z,8.40
2023-04-01T05:26:25.793Z,8.20
2023-04-01T05:28:54.624Z,7.74
2023-04-01T05:31:26.751Z,8.16
2023-04-01T05:33:55.968Z,8.75
2023-04-01T05:36:25.048Z,9.15
2023-04-01T05:38:57.568Z,9.01
2023-04-01T05:41:28.709Z,9.21
2023-04-01T05:43:57.655Z,9.62
2023-04-01T05:46:43.267Z,9.68
2023-04-01T05:49:25.566Z,9.97
2023-04-01T05:51:56.428Z,10.44
2023-04-01T05:54:25.783Z,10.98
2023-04-01T05:56:54.687Z,11.11
2023-04-01T05:59:23.602Z,11.21
2023-04-01T06:01:54.157Z,11.32
2023-04-01T06:04:23.134Z,11.36
2023-04-01T06:06:53.052Z,11.42
2023-04-01T06:09:28.051Z,11.55
2023-04-01T06:12:31.700Z,11.16
2023-04-01T06:15:13.471Z,10.21
2023-04-01T06:18:02.590Z,8.46
2023-04-01T06:20:42.887Z,8.64
2023-04-01T06:23:27.213Z,8.99
2023-04-01T06:26:05.412Z,8.24
2023-04-01T06:28:52.261Z,8.42
2023-04-01T06:31:41.154Z,9.13
2023-04-01T06:34:46.016Z,9.37
2023-04-01T06:37:30.018Z,9.58
2023-04-01T06:40:21.280Z,10.16
2023-04-01T06:43:04.103Z,10.92
2023-04-01T06:45:59.048Z,11.09
2023-04-01T06:49:04.678Z,10.03
2023-04-01T06:52:00.046Z,9.97
2023-04-01T06:54:54.047Z,9.92
2023-04-01T06:57:46.195Z,10.05
2023-04-01T07:00:29.407Z,10.33
2023-04-01T07:03:07.181Z,10.69
2023-04-01T07:05:37.187Z,10.70
2023-04-01T07:08:10.405Z,10.91
2023-04-01T07:10:48.575Z,10.50
2023-04-01T07:13:43.500Z,10.94
2023-04-01T07:16:26.227Z,11.47
2023-04-01T07:19:03.603Z,12.03
2023-04-01T07:21:51.871Z,12.14
2023-04-01T07:24:35.340Z,11.91
2023-04-01T07:27:13.155Z,12.10
2023-04-01T07:29:43.711Z,12.10
2023-04-01T07:32:25.436Z,11.89
2023-04-01T07:35:16.220Z,11.39
2023-04-01T07:38:01.032Z,11.43
2023-04-01T07:40:39.846Z,11.95
2023-04-01T07:43:34.788Z,12.26
2023-04-01T07:46:32.394Z,12.06
2023-04-01T07:49:07.180Z,12.09
2023-04-01T07:51:48.019Z,12.49
2023-04-01T07:54:25.215Z,12.15
2023-04-01T07:57:00.864Z,12.04
2023-04-01T07:59:54.794Z,12.45
2023-04-01T08:02:40.939Z,13.60
2023-04-01T08:05:18.730Z,14.55
2023-04-01T08:07:55.172Z,14.42
2023-04-01T08:10:49.270Z,14.56
2023-04-01T08:13:46.384Z,15.09
2023-04-01T08:16:41.446Z,15.78
2023-04-01T08:19:24.472Z,15.92
2023-04-01T08:22:00.412Z,16.27
2023-04-01T08:24:46.422Z,15.56
2023-04-01T08:27:25.160Z,15.24
2023-04-01T08:30:01.022Z,15.29
2023-04-01T08:32:38.612Z,15.05
2023-04-01T08:35:16.705Z,14.64
2023-04-01T08:37:47.836Z,14.42
2023-04-01T08:40:58.246Z,14.25
2023-04-01T08:43:57.193Z,14.22
2023-04-01T08:46:58.001Z,13.78
2023-04-01T08:49:49.583Z,13.88
2023-04-01T08:52:37.828Z,14.01
2023-04-01T08:55:40.772Z,13.83
2023-04-01T08:58:34.527Z,13.31
2023-04-01T09:01:34.482Z,12.95
2023-04-01T09:04:24.106Z,12.80
2023-04-01T09:07:06.320Z,13.01
2023-04-01T09:10:08.843Z,13.37
2023-04-01T09:12:53.729Z,13.57
2023-04-01T09:15:54.025Z,13.92
2023-04-01T09:19:02.535Z,14.50
2023-04-01T09:22:04.467Z,14.65
2023-04-01T09:25:24.175Z,15.11
2023-04-01T09:27:59.903Z,15.17
2023-04-01T09:30:59.503Z,14.99
2023-04-01T09:33:59.120Z,15.21
2023-04-01T09:36:47.170Z,15.11
2023-04-01T09:39:49.658Z,14.75
2023-04-01T09:43:02.474Z,15.05
2023-04-01T09:45:55.731Z,15.19
2023-04-01T09:48:42.283Z,15.51
2023-04-01T09:51:25.143Z,15.46
2023-04-01T09:54:09.787Z,15.83
2023-04-01T09:57:12.591Z,15.79
2023-04-01T10:00:24.011Z,15.77
2023-04-01T10:03:27.239Z,15.15
2023-04-01T10:06:39.300Z,15.41
2023-04-01T10:09:35.532Z,15.21
2023-04-01T10:12:34.599Z,15.19
2023-04-01T10:15:37.062Z,15.25
2023-04-01T10:18:33.734Z,15.24
2023-04-01T10:21:27.489Z,15.12
2023-04-01T10:24:18.329Z,15.50
2023-04-01T10:27:12.393Z,15.60
2023-04-01T10:30:31.998Z,15.38
2023-04-01T10:33:34.768Z,15.50
2023-04-01T10:36:43.165Z,14.96
2023-04-01T10:39:36.289Z,15.06
2023-04-01T10:43:06.620Z,15.13
2023-04-01T10:46:26.003Z,15.07
2023-04-01T10:49:34.194Z,14.84
2023-04-01T10:52:35.501Z,15.02
2023-04-01T10:55:56.131Z,14.96
2023-04-01T10:59:26.389Z,15.63
2023-04-01T11:03:07.524Z,15.49
2023-04-01T11:06:20.611Z,15.59
2023-04-01T11:09:37.549Z,15.76
2023-04-01T11:12:37.433Z,16.43
2023-04-01T11:15:29.023Z,16.90
2023-04-01T11:18:36.358Z,16.66
2023-04-01T11:21:31.388Z,16.34
2023-04-01T11:24:23.769Z,16.39
2023-04-01T11:27:27.463Z,16.18
2023-04-01T11:30:18.328Z,16.39
2023-04-01T11:32:56.725Z,16.45
2023-04-01T11:35:50.170Z,16.70
2023-04-01T11:38:35.298Z,16.69
2023-04-01T11:41:41.178Z,16.50
2023-04-01T11:44:38.259Z,16.05
2023-04-01T11:47:29.689Z,16.08
2023-04-01T11:50:16.774Z,16.19
2023-04-01T11:53:07.735Z,16.43
2023-04-01T11:58:33.615Z,15.80
2023-04-01T12:01:14.896Z,15.56
2023-04-01T12:04:00.208Z,15.22
2023-04-01T12:06:40.421Z,14.91
2023-04-01T12:09:18.388Z,14.81
2023-04-01T12:11:56.713Z,14.50
2023-04-01T12:14:38.166Z,14.30
2023-04-01T12:17:14.922Z,14.00
2023-04-01T12:19:52.534Z,13.66
2023-04-01T12:22:36.757Z,13.63
2023-04-01T12:25:19.643Z,13.49
2023-04-01T12:28:03.331Z,13.65
2023-04-01T12:31:01.030Z,13.30
2023-04-01T12:33:58.701Z,13.34
2023-04-01T12:36:42.910Z,13.35
2023-04-01T12:39:35.653Z,13.27
2023-04-01T12:42:14.757Z,13.29
2023-04-01T12:45:03.534Z,13.17
2023-04-01T12:48:07.578Z,12.21
2023-04-01T12:51:07.726Z,11.00
2023-04-01T12:53:57.752Z,10.43
2023-04-01T12:56:42.085Z,10.02
2023-04-01T12:59:34.561Z,9.72
2023-04-01T13:02:15.431Z,9.58
2023-04-01T13:04:58.787Z,9.52
2023-04-01T13:08:23.356Z,9.60
2023-04-01T13:11:08.325Z,9.63
2023-04-01T13:13:55.038Z,9.68
2023-04-01T13:16:28.454Z,9.88
2023-04-01T13:19:04.052Z,10.21
2023-04-01T13:21:46.090Z,10.25
2023-04-01T13:24:30.674Z,10.52
2023-04-01T13:27:07.717Z,10.96
2023-04-01T13:29:41.098Z,11.34
2023-04-01T13:32:33.300Z,11.59
2023-04-01T13:35:34.856Z,11.58
2023-04-01T13:38:19.243Z,11.41
2023-04-01T13:41:03.488Z,11.57
2023-04-01T13:43:36.934Z,11.87
2023-04-01T13:46:18.505Z,11.88
2023-04-01T13:49:22.368Z,11.69
2023-04-01T13:52:12.001Z,11.59
2023-04-01T13:55:14.510Z,11.85
2023-04-01T13:58:04.932Z,11.71
2023-04-01T14:00:56.867Z,11.55
2023-04-01T14:03:32.834Z,11.38
2023-04-01T14:06:15.274Z,10.99
2023-04-01T14:09:18.522Z,11.09
2023-04-01T14:11:59.276Z,11.04
2023-04-01T14:14:38.603Z,11.01
2023-04-01T14:17:22.807Z,10.94
2023-04-01T14:20:13.335Z,11.25
2023-04-01T14:22:56.773Z,12.03
2023-04-01T14:25:52.636Z,11.87
2023-04-01T14:28:27.412Z,12.15
2023-04-01T14:31:19.734Z,13.18
2023-04-01T14:33:57.161Z,14.00
2023-04-01T14:36:45.117Z,14.23
2023-04-01T14:39:29.682Z,14.13
2023-04-01T14:42:20.982Z,14.10
2023-04-01T14:45:24.126Z,13.44
2023-04-01T14:47:59.228Z,13.70
2023-04-01T14:50:32.053Z,14.10
2023-04-01T14:53:15.013Z,14.59
2023-04-01T14:55:52.293Z,13.50
2023-04-01T14:58:23.772Z,13.86
2023-04-01T15:01:16.096Z,14.46
2023-04-01T15:03:58.039Z,14.45
2023-04-01T15:06:49.870Z,14.24
2023-04-01T15:09:26.832Z,14.27
2023-04-01T15:12:09.228Z,13.66
2023-04-01T15:15:00.414Z,13.86
2023-04-01T15:17:45.466Z,14.13
2023-04-01T15:20:32.971Z,14.26
2023-04-01T15:23:22.905Z,14.58
2023-04-01T15:26:14.445Z,14.62
2023-04-01T15:28:53.857Z,14.38
2023-04-01T15:31:30.211Z,13.83
2023-04-01T15:34:29.164Z,13.27
2023-04-01T15:37:05.027Z,12.80
2023-04-01T15:39:47.458Z,12.83
2023-04-01T15:42:28.577Z,12.88
2023-04-01T15:45:09.388Z,13.31
2023-04-01T15:47:43.127Z,13.16
2023-04-01T15:53:32.927Z,13.33
2023-04-01T15:56:18.459Z,13.41
2023-04-01T15:59:00.540Z,13.33
2023-04-01T16:01:40.410Z,13.15
2023-04-01T16:04:25.967Z,12.26
2023-04-01T16:07:12.043Z,12.03
2023-04-01T16:10:03.687Z,11.96
2023-04-01T16:12:47.252Z,11.83
2023-04-01T16:15:27.146Z,11.90
2023-04-01T16:18:11.489Z,11.64
2023-04-01T16:20:52.268Z,11.78
2023-04-01T16:23:27.415Z,11.82
2023-04-01T16:26:07.636Z,11.81
2023-04-01T16:28:42.379Z,11.86
2023-04-01T16:31:16.524Z,11.91
2023-04-01T16:33:53.201Z,11.84
2023-04-01T16:36:28.420Z,11.84
2023-04-01T16:39:21.097Z,11.54
2023-04-01T16:41:58.994Z,11.63
2023-04-01T16:44:29.351Z,11.65
2023-04-01T16:47:02.201Z,11.51
2023-04-01T16:49:39.816Z,11.30
2023-04-01T16:52:31.794Z,11.30
2023-04-01T16:55:05.975Z,11.43
2023-04-01T16:57:49.404Z,11.11
2023-04-01T17:00:25.933Z,10.49
2023-04-01T17:03:18.355Z,9.86
2023-04-01T17:05:57.251Z,9.58
2023-04-01T17:08:35.841Z,9.61
2023-04-01T17:11:12.130Z,9.56
2023-04-01T17:13:49.809Z,9.65
2023-04-01T17:16:45.979Z,9.55
2023-04-01T17:19:28.122Z,9.60
2023-04-01T17:22:06.559Z,9.79
2023-04-01T17:24:52.170Z,9.60
2023-04-01T17:27:28.216Z,9.45
2023-04-01T17:30:16.669Z,9.53
2023-04-01T17:32:59.283Z,9.18
2023-04-01T17:35:33.937Z,9.00
2023-04-01T17:38:15.324Z,9.00
2023-04-01T17:40:57.258Z,9.03
2023-04-01T17:43:39.537Z,8.99
2023-04-01T17:46:30.184Z,8.67
2023-04-01T17:49:06.112Z,8.09
2023-04-01T17:51:42.479Z,7.99
2023-04-01T17:54:23.539Z,8.00
2023-04-01T17:57:10.101Z,7.81
2023-04-01T17:59:40.801Z,7.53
2023-04-01T18:02:26.764Z,7.31
2023-04-01T18:05:46.093Z,7.03
2023-04-01T18:08:19.805Z,7.04
2023-04-01T18:11:00.995Z,7.05
2023-04-01T18:13:55.353Z,6.94
2023-04-01T18:16:36.400Z,6.95
2023-04-01T18:19:16.879Z,6.72
2023-04-01T18:21:49.181Z,6.66
2023-04-01T18:24:25.194Z,6.56
2023-04-01T18:27:05.953Z,6.56
2023-04-01T18:29:42.335Z,6.62
2023-04-01T18:32:20.211Z,6.55
2023-04-01T18:34:59.702Z,6.45
2023-04-01T18:37:33.691Z,6.48
2023-04-01T18:40:14.651Z,6.46
2023-04-01T18:42:56.292Z,6.44
2023-04-01T18:45:31.026Z,6.44
2023-04-01T18:48:17.390Z,6.46
2023-04-01T18:50:56.870Z,6.45
2023-04-01T18:53:31.324Z,6.30
2023-04-01T18:56:04.234Z,6.22
2023-04-01T18:58:37.204Z,6.12
2023-04-01T19:01:16.866Z,6.12
2023-04-01T19:03:57.894Z,6.04
2023-04-01T19:06:34.020Z,5.86
2023-04-01T19:09:19.067Z,5.83
2023-04-01T19:12:02.100Z,5.86
2023-04-01T19:14:47.193Z,5.78
2023-04-01T19:17:30.194Z,5.84
2023-04-01T19:20:09.533Z,6.03
2023-04-01T19:23:04.551Z,6.31
2023-04-01T19:25:39.112Z,6.42
2023-04-01T19:28:28.633Z,6.46
2023-04-01T19:31:00.803Z,6.53
2023-04-01T19:33:51.037Z,6.77
2023-04-01T19:36:29.514Z,6.73
2023-04-01T19:39:12.115Z,7.03
2023-04-01T19:41:49.463Z,6.84
2023-04-01T19:44:33.561Z,6.76
2023-04-01T19:47:11.551Z,6.65
2023-04-01T19:49:51.841Z,6.27
2023-04-01T19:52:26.088Z,6.28
2023-04-01T19:55:03.389Z,6.40
2023-04-01T19:57:40.590Z,6.47
2023-04-01T20:00:23.641Z,6.54
2023-04-01T20:03:04.312Z,6.47
2023-04-01T20:05:42.304Z,6.34
2023-04-01T20:08:18.333Z,6.43
2023-04-01T20:10:58.617Z,6.53
2023-04-01T20:13:36.261Z,6.39
2023-04-01T20:16:08.173Z,6.20
2023-04-01T20:18:43.118Z,6.22
2023-04-01T20:21:29.425Z,6.31
2023-04-01T20:24:04.147Z,6.13
2023-04-01T20:26:39.790Z,6.08
2023-04-01T20:29:30.402Z,6.04
2023-04-01T20:32:11.999Z,6.22
2023-04-01T20:35:00.882Z,6.27
2023-04-01T20:37:42.084Z,6.43
2023-04-01T20:40:37.324Z,6.54
2023-04-01T20:43:26.282Z,6.76
2023-04-01T20:46:00.186Z,6.65
2023-04-01T20:48:43.147Z,6.53
2023-04-01T20:51:16.403Z,6.67
2023-04-01T20:53:52.727Z,6.52
2023-04-01T20:56:38.383Z,6.50
2023-04-01T20:59:26.703Z,6.39
2023-04-01T21:02:07.596Z,6.39
2023-04-01T21:05:06.617Z,6.34
2023-04-01T21:07:39.245Z,6.22
2023-04-01T21:10:31.634Z,6.20
2023-04-01T21:13:12.817Z,6.04
2023-04-01T21:15:55.030Z,6.07
2023-04-01T21:18:44.840Z,6.13
2023-04-01T21:21:39.474Z,5.91
2023-04-01T21:24:46.714Z,5.90
2023-04-01T21:27:25.298Z,5.88
2023-04-01T21:30:03.711Z,5.83
2023-04-01T21:32:47.605Z,5.95
2023-04-01T21:35:28.508Z,6.00
2023-04-01T21:38:20.723Z,6.06
2023-04-01T21:41:10.448Z,6.08
2023-04-01T21:44:19.795Z,6.10
2023-04-01T21:47:11.318Z,6.23
2023-04-01T21:50:05.427Z,6.31
2023-04-01T21:52:59.178Z,6.43
2023-04-01T21:56:12.149Z,6.43
2023-04-01T21:59:04.374Z,6.39
2023-04-01T22:02:06.196Z,6.41
2023-04-01T22:04:48.067Z,6.41
2023-04-01T22:07:19.778Z,6.48
2023-04-01T22:09:57.809Z,6.46
2023-04-01T22:12:38.414Z,6.56
2023-04-01T22:15:19.250Z,6.40
2023-04-01T22:17:56.103Z,6.45
2023-04-01T22:20:33.640Z,6.47
2023-04-01T22:23:14.520Z,6.32
2023-04-01T22:25:52.146Z,6.33
2023-04-01T22:28:28.875Z,6.36
2023-04-01T22:31:02.150Z,6.37
2023-04-01T22:33:38.396Z,6.32
2023-04-01T22:36:19.099Z,6.38
2023-04-01T22:39:04.633Z,6.35
2023-04-01T22:41:40.368Z,6.36
2023-04-01T22:44:21.387Z,6.40
2023-04-01T22:47:00.452Z,6.34
2023-04-01T22:49:36.611Z,6.34
2023-04-01T22:52:16.572Z,6.19
2023-04-01T22:54:50.714Z,6.07
2023-04-01T22:57:33.736Z,6.18
2023-04-01T23:00:10.817Z,6.23
2023-04-01T23:02:44.352Z,6.18
2023-04-01T23:05:17.956Z,6.29
2023-04-01T23:07:58.960Z,6.18
2023-04-01T23:10:32.364Z,6.18
2023-04-01T23:13:04.106Z,6.01
2023-04-01T23:15:35.634Z,6.06
2023-04-01T23:18:22.989Z,6.17
2023-04-01T23:21:14.893Z,6.01
2023-04-01T23:24:07.046Z,6.10
2023-04-01T23:26:41.833Z,6.06
2023-04-01T23:29:16.726Z,6.18
2023-04-01T23:31:47.811Z,6.31
2023-04-01T23:34:27.841Z,6.17
2023-04-01T23:37:00.259Z,6.28
2023-04-01T23:39:35.532Z,6.28
2023-04-01T23:42:07.090Z,6.27
2023-04-01T23:44:37.524Z,6.30
2023-04-01T23:47:07.854Z,6.43
2023-04-01T23:49:40.942Z,6.31
2023-04-01T23:52:16.914Z,6.49
2023-04-01T23:54:51.589Z,6.54
2023-04-01T23:57:25.222Z,6.48
